METAR AND TAF INFORMATION
METAR FOR LEVD
ADDS - METARS form results

(0745 UTC 18 September 2021)
Data provider http://aviationweather.gov/metar/data/
 
METAR text: LEVD 180730Z 34010KT 9999 FEW010 SCT040 13/09 Q1017
Conditions at: LEVD (VALLADOLID(MIL/C, ES) observed 0730 UTC 18 September 2021
Temperature: 13.0°C (55°F)
Dewpoint: 9.0°C (48°F) [RH = 77%]
Pressure (altimeter): 30.03 inches Hg (1017.0 mb)
Winds: from the NNW (340 degrees) at 12 MPH (10 knots; 5.1 m/s)
Visibility: 6 or more miles (10+ km)
Ceiling: at least 12,000 feet AGL
Clouds: few clouds at 1000 feet AGL
scattered clouds at 4000 feet AGL
Weather: no significant weather observed at this time

METAR text: LEVD 180700Z 35008KT 9999 SCT008 BKN035 12/10 Q1018
Conditions at: LEVD (VALLADOLID(MIL/C, ES) observed 0700 UTC 18 September 2021
Temperature: 12.0°C (54°F)
Dewpoint: 10.0°C (50°F) [RH = 88%]
Pressure (altimeter): 30.06 inches Hg (1018.0 mb)
Winds: from the N (350 degrees) at 9 MPH (8 knots; 4.1 m/s)
Visibility: 6 or more miles (10+ km)
Ceiling: 3500 feet AGL
Clouds: scattered clouds at 800 feet AGL
broken clouds at 3500 feet AGL
Weather: no significant weather observed at this time

Forecast for: LEVD (VALLADOLID(MIL/C, ES)
Text: TAF LEVD 180200Z 1803/1903 35010KT 9999 FEW040 TX21/1815Z TN10/1806Z
Forecast period: 0300 UTC 18 September 2021 to 0300 UTC 19 September 2021
Forecast type: FROM: standard forecast or significant change
Winds: from the N (350 degrees) at 12 MPH (10 knots; 5.1 m/s)
Visibility: 6 or more miles (10+ km)
Ceiling: at least 12,000 feet AGL
Clouds: few clouds at 4000 feet AGL
Weather: no significant weather forecast for this period
Text: PROB30 1803/1808 3000 BR BKN007
Forecast period: 0300 to 0800 UTC 18 September 2021
Forecast type: PROBABLE: 30 percent likelihood of the following during this time
Visibility: 1.86 miles (2.99 km)
Ceiling: 700 feet AGL
Clouds: broken clouds at 700 feet AGL
Weather: BR  (mist)

 AIRPORT MAP

 RUNWAY INFORMATION
Runway 05 Runway length 9843 ft Runway width 197 ft
Runway elevation 2768 ft Runway displaced threshold 0 ft Runway heading 45
Runway 23 Runway length 9843 ft Runway width 197 ft
Runway elevation 2775 ft Runway displaced threshold 0 ft Runway heading 225
Runway 15 Runway length 2976 ft Runway width 197 ft
Runway elevation 2770 ft Runway displaced threshold 0 ft Runway heading 144
Runway 33 Runway length 2976 ft Runway width 197 ft
Runway elevation 2771 ft Runway displaced threshold 0 ft Runway heading 324

 AIRPORT FREQUENCIES
Type TWR Name TWR Frequency 122.2 MHZ

 AIRPORT NEAR NAVIGATION AIDS
Type TACAN Name Valladolid Frequency 108200 KHZ
Type NDB Name Valladolid Frequency 342 KHZ



Powered by Virtual Airlines Manager [v2.6.2]